createdAt,value
2022-12-26T00:00:27.675Z,5.85
2022-12-26T00:15:24.481Z,5.72
2022-12-26T00:30:23.719Z,5.45
2022-12-26T00:45:23.702Z,5.57
2022-12-26T01:00:23.943Z,5.32
2022-12-26T01:15:23.800Z,5.53
2022-12-26T01:30:23.847Z,5.27
2022-12-26T01:45:24.260Z,5.25
2022-12-26T02:00:29.263Z,4.80
2022-12-26T02:15:23.841Z,5.18
2022-12-26T02:30:23.939Z,5.05
2022-12-26T02:45:23.936Z,5.05
2022-12-26T03:00:26.299Z,5.30
2022-12-26T03:15:23.868Z,5.15
2022-12-26T03:30:33.538Z,5.25
2022-12-26T03:45:32.967Z,5.38
2022-12-26T04:00:35.338Z,5.45
2022-12-26T04:15:23.376Z,5.57
2022-12-26T04:30:23.199Z,5.65
2022-12-26T04:45:23.209Z,5.80
2022-12-26T05:00:34.014Z,5.73
2022-12-26T05:15:23.347Z,5.78
2022-12-26T05:30:23.338Z,5.93
2022-12-26T05:45:23.268Z,5.80
2022-12-26T06:00:26.074Z,5.80
2022-12-26T06:15:23.155Z,5.85
2022-12-26T06:30:23.662Z,5.93
2022-12-26T06:45:23.422Z,6.03
2022-12-26T07:00:30.404Z,5.95
2022-12-26T07:15:23.461Z,6.23
2022-12-26T07:30:23.401Z,6.10
2022-12-26T07:45:23.668Z,6.27
2022-12-26T08:00:28.352Z,6.10
2022-12-26T08:15:24.094Z,6.05
2022-12-26T08:30:23.641Z,6.28
2022-12-26T08:45:23.379Z,6.40
2022-12-26T09:00:28.158Z,6.20
2022-12-26T09:15:24.044Z,6.52
2022-12-26T09:30:26.433Z,6.55
2022-12-26T09:45:23.679Z,6.75
2022-12-26T10:00:29.186Z,6.85
2022-12-26T10:15:23.700Z,7.10
2022-12-26T10:30:23.584Z,7.15
2022-12-26T10:45:23.880Z,7.53
2022-12-26T11:00:48.006Z,7.97
2022-12-26T11:15:25.271Z,8.60
2022-12-26T11:30:24.649Z,8.73
2022-12-26T11:45:23.665Z,9.02
2022-12-26T12:00:23.806Z,9.13
2022-12-26T12:15:23.780Z,9.12
2022-12-26T12:30:24.412Z,9.17
2022-12-26T12:45:23.968Z,9.12
2022-12-26T13:00:29.252Z,9.30
2022-12-26T13:15:24.093Z,9.37
2022-12-26T13:30:33.054Z,9.30
2022-12-26T13:45:33.195Z,9.38
2022-12-26T14:00:33.446Z,9.43
2022-12-26T14:15:23.184Z,9.45
2022-12-26T14:30:23.264Z,9.47
2022-12-26T14:45:23.085Z,9.43
2022-12-26T15:00:24.197Z,9.45
2022-12-26T15:15:23.285Z,9.38
2022-12-26T15:30:24.443Z,9.33
2022-12-26T15:45:28.106Z,9.27
2022-12-26T16:00:27.806Z,9.35
2022-12-26T16:15:23.398Z,9.00
2022-12-26T16:30:23.403Z,9.27
2022-12-26T16:45:23.329Z,9.40
2022-12-26T17:00:27.117Z,9.07
2022-12-26T17:15:23.617Z,9.00
2022-12-26T17:30:25.229Z,8.85
2022-12-26T17:45:23.580Z,9.02
2022-12-26T18:00:31.696Z,9.27
2022-12-26T18:15:24.223Z,9.52
2022-12-26T18:30:25.668Z,9.57
2022-12-26T18:45:23.536Z,9.18
2022-12-26T19:00:31.295Z,8.93
2022-12-26T19:15:23.548Z,8.80
2022-12-26T19:30:35.109Z,8.65
2022-12-26T19:45:23.957Z,8.70
2022-12-26T20:00:23.585Z,8.48
2022-12-26T20:15:23.553Z,8.45
2022-12-26T20:30:23.911Z,8.53
2022-12-26T20:45:23.441Z,8.20
2022-12-26T21:00:40.040Z,8.27
2022-12-26T21:15:23.718Z,8.33
2022-12-26T21:30:23.950Z,8.40
2022-12-26T21:45:23.883Z,8.40
2022-12-26T22:00:24.206Z,8.25
2022-12-26T22:15:24.404Z,7.95
2022-12-26T22:30:24.045Z,7.70
2022-12-26T22:45:24.177Z,7.53
2022-12-26T23:03:08.695Z,6.80
2022-12-26T23:15:33.005Z,7.15
2022-12-26T23:30:32.891Z,7.18
2022-12-26T23:45:32.878Z,7.20
